Time;durP1;ratioP1;P1;durP2;ratioP2;P2;SDS_P1;SDS_P2;PMS_P1;PMS_P2;Temp;Humidity;BMP_temperature;BMP_pressure;BME280_temperature;BME280_humidity;BME280_pressure;Samples;Min_cycle;Max_cycle;Signal;HPM_P1;HPM_P2
2022/07/11 00:48:17;;;;;;;;;;;;;;;16.59;45.37;101089.66;4881794;28;98193;-58
2022/07/11 08:48:35;;;;;;;;;;;;;;;37.23;22.28;101162.53;4835311;28;98434;-61
2022/07/11 11:27:13;;;;;;;;;;;;;;;47.46;13.11;101056.78;4820760;28;99422;-56
2022/07/11 19:53:27;;;;;;;;;;;;;;;21.55;34.00;101107.19;4839255;28;97916;-64
2022/07/11 21:34:22;;;;;;;;;;;;;;;19.02;38.65;101169.47;4824549;28;97998;-58
2022/07/11 21:37:14;;;;;;;;;;;;;;;18.96;38.87;101172.59;4825244;28;98739;-64
2022/07/11 21:40:07;;;;;;;;;;;;;;;18.87;39.00;101176.06;4901119;28;97938;-57
2022/07/11 21:43:00;;;;;;;;;;;;;;;18.81;39.05;101177.28;4824905;28;98481;-58
2022/07/11 21:45:53;;;;;;;;;;;;;;;18.74;39.00;101170.59;4826399;28;98565;-65
2022/07/11 21:48:45;;;;;;;;;;;;;;;18.68;39.38;101177.28;4827984;28;99026;-64
2022/07/11 21:51:38;;;;;;;;;;;;;;;18.62;39.41;101176.53;4830897;28;98151;-58
2022/07/11 21:54:30;;;;;;;;;;;;;;;18.55;39.53;101179.69;4833595;28;98105;-57
2022/07/11 21:57:23;;;;;;;;;;;;;;;18.51;39.47;101183.31;4907680;28;98391;-64
2022/07/11 22:00:27;;;;;;;;;;;;;;;18.43;39.73;101186.75;4831120;28;98069;-64
2022/07/11 22:03:29;;;;;;;;;;;;;;;18.32;39.80;101181.50;4841565;28;98247;-64
2022/07/11 22:06:21;;;;;;;;;;;;;;;18.27;39.97;101188.97;4836042;28;97913;-65
2022/07/11 22:09:13;;;;;;;;;;;;;;;18.19;40.20;101190.47;4824109;28;98012;-64
2022/07/11 22:12:06;;;;;;;;;;;;;;;18.12;40.38;101184.63;4832670;28;98636;-65
2022/07/11 22:14:59;;;;;;;;;;;;;;;18.07;40.30;101188.22;4824250;28;98480;-65
2022/07/11 22:17:51;;;;;;;;;;;;;;;18.05;40.46;101192.38;4825063;28;98167;-57
2022/07/11 22:20:44;;;;;;;;;;;;;;;18.03;40.44;101191.84;4829686;28;98734;-57
2022/07/11 22:23:37;;;;;;;;;;;;;;;18.00;40.69;101196.00;4824094;28;97871;-57
2022/07/11 22:26:29;;;;;;;;;;;;;;;17.97;40.58;101190.34;4824859;28;98295;-58
2022/07/11 22:29:22;;;;;;;;;;;;;;;17.89;40.91;101194.56;4823842;28;99341;-60
2022/07/11 22:32:14;;;;;;;;;;;;;;;17.84;41.04;101195.47;4824642;28;98470;-65
2022/07/11 22:35:07;;;;;;;;;;;;;;;17.76;41.05;101196.13;4828683;28;98499;-58
2022/07/11 22:38:00;;;;;;;;;;;;;;;17.69;41.51;101190.22;4824507;28;98085;-57
2022/07/11 22:40:52;;;;;;;;;;;;;;;17.61;41.56;101189.00;4824439;28;98260;-64
2022/07/11 22:43:45;;;;;;;;;;;;;;;17.57;41.78;101192.63;4824823;28;99131;-57
2022/07/11 22:46:37;;;;;;;;;;;;;;;17.51;41.93;101189.13;4824645;28;97957;-57
2022/07/11 22:49:30;;;;;;;;;;;;;;;17.43;42.02;101195.25;4833331;28;98238;-64
2022/07/11 22:52:23;;;;;;;;;;;;;;;17.37;42.26;101199.16;4825495;28;97761;-64
2022/07/11 22:55:15;;;;;;;;;;;;;;;17.33;42.36;101195.41;4832595;28;98623;-65
2022/07/11 22:58:08;;;;;;;;;;;;;;;17.28;42.58;101204.47;4843222;28;98253;-64
2022/07/11 23:01:00;;;;;;;;;;;;;;;17.26;42.40;101203.97;4823960;28;98111;-57
2022/07/11 23:03:53;;;;;;;;;;;;;;;17.21;42.69;101198.56;4829755;28;97940;-64
2022/07/11 23:06:45;;;;;;;;;;;;;;;17.17;42.77;101192.09;4828877;28;98266;-57
2022/07/11 23:09:38;;;;;;;;;;;;;;;17.13;42.74;101191.88;4827017;28;98264;-64
2022/07/11 23:12:30;;;;;;;;;;;;;;;17.08;42.80;101199.31;4907016;28;98905;-65
2022/07/11 23:15:23;;;;;;;;;;;;;;;17.01;42.91;101196.13;4840194;28;97761;-57
2022/07/11 23:18:16;;;;;;;;;;;;;;;16.91;42.96;101205.25;4842512;28;98428;-57
2022/07/11 23:21:08;;;;;;;;;;;;;;;16.84;43.14;101200.16;4823847;28;99018;-65
2022/07/11 23:24:01;;;;;;;;;;;;;;;16.80;43.02;101193.66;4824857;28;97942;-57
2022/07/11 23:26:54;;;;;;;;;;;;;;;16.79;43.11;101188.53;4824500;28;97878;-57
2022/07/11 23:29:46;;;;;;;;;;;;;;;16.74;43.28;101196.75;4823503;28;98505;-59
2022/07/11 23:32:39;;;;;;;;;;;;;;;16.67;43.28;101188.91;4822794;28;99011;-57
2022/07/11 23:35:32;;;;;;;;;;;;;;;16.58;43.40;101193.34;4839415;28;97896;-64
2022/07/11 23:38:24;;;;;;;;;;;;;;;16.50;43.51;101199.44;4842225;28;97813;-64
2022/07/11 23:41:17;;;;;;;;;;;;;;;16.42;43.45;101198.16;4823525;28;98368;-64
2022/07/11 23:44:19;;;;;;;;;;;;;;;16.38;43.69;101199.84;4829099;28;98108;-64
2022/07/11 23:47:11;;;;;;;;;;;;;;;16.34;43.76;101199.59;4842700;28;98351;-64
2022/07/11 23:50:04;;;;;;;;;;;;;;;16.29;44.16;101201.56;4834302;28;97933;-63
2022/07/11 23:52:56;;;;;;;;;;;;;;;16.21;43.90;101203.00;4823356;28;97934;-57
2022/07/11 23:55:49;;;;;;;;;;;;;;;16.11;44.16;101205.81;4840759;28;98316;-65
2022/07/11 23:58:42;;;;;;;;;;;;;;;16.03;44.14;101211.88;4842244;28;97965;-57
